createdAt,value
2022-11-10T00:01:10.524Z,2.80
2022-11-10T00:03:38.799Z,2.50
2022-11-10T00:06:07.197Z,2.40
2022-11-10T00:08:34.289Z,2.27
2022-11-10T00:11:06.420Z,3.07
2022-11-10T00:13:35.569Z,4.43
2022-11-10T00:16:22.856Z,2.50
2022-11-10T00:18:50.218Z,3.70
2022-11-10T00:21:18.187Z,3.37
2022-11-10T00:23:47.744Z,2.80
2022-11-10T00:26:20.021Z,2.80
2022-11-10T00:28:46.854Z,4.20
2022-11-10T00:31:13.765Z,2.87
2022-11-10T00:33:42.709Z,2.33
2022-11-10T00:36:09.713Z,2.50
2022-11-10T00:38:36.845Z,2.40
2022-11-10T00:41:03.635Z,2.30
2022-11-10T00:43:31.197Z,2.53
2022-11-10T00:45:58.252Z,2.60
2022-11-10T00:48:24.996Z,2.30
2022-11-10T00:50:51.713Z,2.20
2022-11-10T00:53:18.832Z,2.50
2022-11-10T00:55:45.815Z,2.20
2022-11-10T00:58:12.854Z,2.40
2022-11-10T01:00:39.651Z,2.80
2022-11-10T01:03:06.494Z,2.33
2022-11-10T01:05:37.594Z,2.10
2022-11-10T01:08:05.018Z,4.43
2022-11-10T01:10:32.205Z,2.30
2022-11-10T01:12:59.334Z,4.07
2022-11-10T01:15:27.851Z,2.77
2022-11-10T01:17:56.116Z,2.60
2022-11-10T01:20:23.476Z,5.97
2022-11-10T01:22:50.680Z,4.80
2022-11-10T01:25:17.368Z,2.77
2022-11-10T01:27:44.476Z,2.50
2022-11-10T01:30:11.608Z,2.60
2022-11-10T01:32:38.678Z,2.67
2022-11-10T01:35:06.003Z,3.10
2022-11-10T01:37:33.057Z,2.50
2022-11-10T01:40:00.075Z,2.40
2022-11-10T01:42:29.071Z,3.10
2022-11-10T01:45:34.245Z,2.30
2022-11-10T01:48:04.708Z,2.57
2022-11-10T01:50:36.696Z,2.20
2022-11-10T01:53:07.701Z,2.60
2022-11-10T01:55:37.444Z,3.10
2022-11-10T01:58:04.631Z,2.63
2022-11-10T02:00:31.750Z,2.40
2022-11-10T02:03:05.914Z,2.67
2022-11-10T02:05:32.817Z,2.73
2022-11-10T02:08:00.239Z,3.20
2022-11-10T02:10:26.914Z,3.07
2022-11-10T02:12:53.947Z,2.97
2022-11-10T02:15:20.858Z,2.37
2022-11-10T02:17:48.655Z,2.97
2022-11-10T02:20:19.437Z,2.90
2022-11-10T02:22:46.482Z,2.77
2022-11-10T02:25:29.755Z,3.00
2022-11-10T02:27:56.813Z,2.40
2022-11-10T02:30:27.554Z,2.93
2022-11-10T02:32:54.902Z,2.43
2022-11-10T02:35:21.629Z,2.50
2022-11-10T02:37:48.682Z,2.37
2022-11-10T02:40:15.501Z,2.93
2022-11-10T02:42:42.165Z,2.93
2022-11-10T02:45:09.129Z,3.27
2022-11-10T02:47:36.210Z,2.27
2022-11-10T02:50:02.857Z,2.40
2022-11-10T02:52:29.932Z,2.30
2022-11-10T02:54:57.025Z,2.33
2022-11-10T02:57:24.122Z,2.50
2022-11-10T02:59:50.803Z,2.47
2022-11-10T03:02:17.959Z,3.00
2022-11-10T03:04:44.610Z,2.50
2022-11-10T03:07:11.446Z,2.30
2022-11-10T03:09:38.541Z,2.77
2022-11-10T03:12:05.309Z,2.73
2022-11-10T03:14:31.999Z,2.60
2022-11-10T03:16:58.673Z,2.63
2022-11-10T03:19:25.333Z,2.40
2022-11-10T03:21:52.430Z,2.63
2022-11-10T03:24:19.182Z,2.50
2022-11-10T03:26:46.265Z,2.43
2022-11-10T03:29:13.381Z,2.53
2022-11-10T03:31:40.477Z,2.40
2022-11-10T03:34:07.599Z,2.60
2022-11-10T03:36:34.255Z,2.50
2022-11-10T03:39:01.009Z,2.80
2022-11-10T03:41:27.667Z,2.67
2022-11-10T03:43:54.359Z,2.80
2022-11-10T03:46:21.488Z,2.60
2022-11-10T03:48:53.260Z,2.83
2022-11-10T03:51:21.346Z,2.70
2022-11-10T03:53:48.529Z,3.00
2022-11-10T03:56:15.644Z,2.50
2022-11-10T03:58:42.352Z,2.77
2022-11-10T04:01:09.062Z,3.00
2022-11-10T04:03:35.721Z,3.20
2022-11-10T04:06:21.593Z,3.40
2022-11-10T04:09:00.966Z,2.97
2022-11-10T04:11:48.047Z,2.97
2022-11-10T04:14:33.978Z,2.93
2022-11-10T04:17:02.252Z,2.73
2022-11-10T04:19:29.324Z,2.97
2022-11-10T04:21:56.710Z,2.90
2022-11-10T04:24:23.440Z,2.67
2022-11-10T04:26:50.381Z,2.77
2022-11-10T04:29:19.129Z,2.73
2022-11-10T04:31:45.980Z,3.30
2022-11-10T04:34:15.020Z,3.07
2022-11-10T04:36:43.602Z,3.37
2022-11-10T04:39:10.935Z,3.67
2022-11-10T04:41:38.467Z,3.37
2022-11-10T04:44:05.346Z,3.27
2022-11-10T04:46:38.385Z,2.90
2022-11-10T04:49:06.467Z,3.30
2022-11-10T04:51:35.967Z,3.13
2022-11-10T04:54:03.646Z,3.37
2022-11-10T04:56:31.081Z,3.20
2022-11-10T04:58:57.845Z,3.13
2022-11-10T05:01:27.429Z,3.50
2022-11-10T05:03:55.107Z,3.70
2022-11-10T05:06:22.248Z,3.20
2022-11-10T05:08:49.358Z,3.03
2022-11-10T05:11:16.754Z,3.60
2022-11-10T05:13:44.462Z,3.23
2022-11-10T05:16:12.046Z,2.90
2022-11-10T05:18:39.031Z,2.90
2022-11-10T05:21:05.881Z,3.17
2022-11-10T05:23:38.723Z,3.07
2022-11-10T05:26:16.594Z,2.80
2022-11-10T05:28:45.077Z,3.27
2022-11-10T05:31:12.770Z,3.07
2022-11-10T05:33:39.648Z,3.60
2022-11-10T05:36:07.565Z,3.33
2022-11-10T05:38:37.737Z,3.50
2022-11-10T05:41:08.677Z,3.47
2022-11-10T05:43:35.737Z,3.60
2022-11-10T05:46:02.818Z,3.30
2022-11-10T05:48:29.503Z,3.40
2022-11-10T05:50:56.212Z,2.73
2022-11-10T05:53:23.316Z,3.80
2022-11-10T05:55:50.222Z,3.47
2022-11-10T05:58:17.325Z,3.47
2022-11-10T06:00:43.995Z,3.17
2022-11-10T06:03:17.378Z,3.70
2022-11-10T06:05:44.587Z,3.67
2022-11-10T06:08:11.730Z,3.20
2022-11-10T06:10:39.101Z,3.10
2022-11-10T06:13:06.076Z,3.63
2022-11-10T06:15:33.310Z,3.53
2022-11-10T06:18:00.221Z,3.40
2022-11-10T06:20:27.124Z,3.40
2022-11-10T06:23:02.401Z,3.60
2022-11-10T06:25:34.185Z,3.67
2022-11-10T06:28:01.769Z,3.70
2022-11-10T06:30:30.205Z,4.10
2022-11-10T06:32:56.918Z,3.60
2022-11-10T06:35:24.306Z,3.97
2022-11-10T06:38:09.070Z,4.30
2022-11-10T06:40:35.720Z,4.07
2022-11-10T06:43:03.108Z,3.90
2022-11-10T06:45:29.837Z,3.70
2022-11-10T06:48:03.968Z,3.97
2022-11-10T06:50:31.102Z,4.00
2022-11-10T06:52:59.312Z,3.70
2022-11-10T06:55:26.648Z,3.83
2022-11-10T06:57:54.256Z,3.90
2022-11-10T07:00:21.497Z,4.20
2022-11-10T07:02:48.150Z,4.30
2022-11-10T07:05:15.480Z,3.90
2022-11-10T07:07:42.259Z,5.63
2022-11-10T07:10:09.151Z,4.90
2022-11-10T07:12:36.245Z,4.83
2022-11-10T07:15:03.046Z,4.80
2022-11-10T07:17:30.112Z,4.50
2022-11-10T07:19:56.792Z,4.50
2022-11-10T07:22:24.885Z,4.23
2022-11-10T07:24:51.584Z,4.37
2022-11-10T07:27:18.629Z,4.67
2022-11-10T07:29:45.253Z,4.37
2022-11-10T07:32:11.979Z,4.33
2022-11-10T07:34:39.068Z,4.07
2022-11-10T07:37:05.795Z,4.10
2022-11-10T07:39:32.973Z,4.83
2022-11-10T07:41:59.636Z,3.77
2022-11-10T07:44:27.665Z,3.77
2022-11-10T07:46:54.417Z,3.57
2022-11-10T07:49:21.525Z,3.53
2022-11-10T07:51:48.169Z,4.27
2022-11-10T07:54:15.326Z,4.13
2022-11-10T07:56:42.420Z,3.53
2022-11-10T07:59:09.104Z,3.77
2022-11-10T08:01:36.274Z,4.33
2022-11-10T08:04:03.085Z,4.00
2022-11-10T08:06:35.827Z,4.10
2022-11-10T08:09:03.098Z,3.87
2022-11-10T08:11:30.331Z,3.93
2022-11-10T08:13:57.421Z,4.10
2022-11-10T08:16:24.496Z,4.07
2022-11-10T08:18:51.771Z,4.90
2022-11-10T08:21:18.786Z,4.60
2022-11-10T08:23:45.860Z,4.40
2022-11-10T08:26:12.947Z,4.83
2022-11-10T08:28:39.564Z,5.20
2022-11-10T08:31:06.831Z,3.93
2022-11-10T08:33:33.565Z,3.63
2022-11-10T08:36:01.685Z,3.40
2022-11-10T08:38:28.433Z,3.57
2022-11-10T08:40:57.290Z,3.73
2022-11-10T08:43:24.703Z,3.37
2022-11-10T08:45:55.137Z,3.80
2022-11-10T08:48:22.207Z,3.70
2022-11-10T08:50:51.398Z,3.57
2022-11-10T08:53:23.995Z,3.97
2022-11-10T08:55:53.131Z,3.63
2022-11-10T08:58:22.344Z,3.53
2022-11-10T09:00:49.105Z,3.43
2022-11-10T09:03:22.301Z,3.57
2022-11-10T09:05:55.106Z,3.00
2022-11-10T09:08:24.915Z,3.20
2022-11-10T09:10:51.662Z,3.40
2022-11-10T09:13:23.471Z,2.77
2022-11-10T09:15:53.292Z,3.00
2022-11-10T09:18:19.991Z,3.10
2022-11-10T09:20:47.067Z,2.93
2022-11-10T09:23:17.596Z,2.80
2022-11-10T09:25:49.917Z,3.27
2022-11-10T09:28:17.485Z,3.27
2022-11-10T09:30:47.496Z,3.67
2022-11-10T09:33:14.539Z,4.40
2022-11-10T09:35:41.878Z,7.13
2022-11-10T09:38:09.156Z,11.83
2022-11-10T09:41:03.611Z,5.00
2022-11-10T09:44:05.192Z,5.30
2022-11-10T09:46:44.273Z,3.80
2022-11-10T09:49:29.702Z,4.87
2022-11-10T09:51:59.272Z,3.73
2022-11-10T09:54:47.038Z,3.23
2022-11-10T09:57:16.690Z,4.00
2022-11-10T09:59:44.311Z,3.87
2022-11-10T10:02:13.967Z,3.80
2022-11-10T10:05:14.362Z,7.30
2022-11-10T10:08:02.372Z,2.60
2022-11-10T10:10:44.966Z,3.50
2022-11-10T10:13:20.748Z,2.20
2022-11-10T10:16:17.827Z,2.93
2022-11-10T10:18:44.430Z,2.83
2022-11-10T10:21:35.998Z,2.87
2022-11-10T10:24:10.369Z,2.73
2022-11-10T10:26:51.495Z,2.40
2022-11-10T10:29:23.940Z,2.90
2022-11-10T10:31:52.788Z,2.63
2022-11-10T10:34:31.302Z,2.43
2022-11-10T10:36:58.047Z,2.47
2022-11-10T10:39:41.686Z,3.13
2022-11-10T10:42:22.541Z,2.50
2022-11-10T10:45:14.085Z,2.60
2022-11-10T10:47:41.189Z,3.20
2022-11-10T10:50:28.068Z,2.43
2022-11-10T10:53:16.605Z,2.50
2022-11-10T10:56:01.118Z,2.50
2022-11-10T10:58:37.142Z,3.20
2022-11-10T11:01:15.874Z,2.43
2022-11-10T11:03:43.331Z,3.03
2022-11-10T11:06:16.776Z,2.70
2022-11-10T11:08:59.471Z,2.50
2022-11-10T11:11:38.266Z,2.43
2022-11-10T11:14:31.548Z,2.60
2022-11-10T11:17:04.218Z,3.03
2022-11-10T11:19:34.376Z,2.70
2022-11-10T11:22:06.920Z,2.60
2022-11-10T11:24:45.983Z,2.50
2022-11-10T11:27:28.081Z,2.53
2022-11-10T11:30:06.909Z,2.33
2022-11-10T11:33:03.478Z,2.30
2022-11-10T11:35:33.776Z,2.67
2022-11-10T11:38:06.541Z,2.80
2022-11-10T11:40:52.042Z,2.53
2022-11-10T11:43:39.775Z,2.80
2022-11-10T11:46:28.525Z,2.40
2022-11-10T11:49:02.889Z,2.77
2022-11-10T11:51:53.003Z,2.60
2022-11-10T11:54:37.920Z,2.47
2022-11-10T11:57:37.196Z,2.30
2022-11-10T12:00:14.398Z,2.20
2022-11-10T12:02:52.948Z,2.67
2022-11-10T12:05:43.979Z,2.33
2022-11-10T12:08:11.044Z,2.50
2022-11-10T12:11:05.532Z,2.23
2022-11-10T12:13:58.464Z,2.60
2022-11-10T12:16:33.916Z,2.40
2022-11-10T12:19:12.848Z,2.87
2022-11-10T12:21:39.900Z,2.30
2022-11-10T12:24:24.390Z,2.40
2022-11-10T12:27:01.756Z,2.10
2022-11-10T12:29:42.079Z,2.07
2022-11-10T12:32:34.622Z,2.67
2022-11-10T12:35:11.178Z,2.27
2022-11-10T12:37:44.396Z,2.10
2022-11-10T12:40:30.295Z,2.10
2022-11-10T12:43:02.179Z,2.30
2022-11-10T12:45:48.691Z,2.53
2022-11-10T12:48:17.097Z,2.80
2022-11-10T12:51:44.904Z,2.30
2022-11-10T12:54:16.792Z,2.33
2022-11-10T12:57:24.046Z,2.20
2022-11-10T12:59:51.062Z,2.37
2022-11-10T13:02:47.007Z,2.70
2022-11-10T13:05:28.749Z,2.33
2022-11-10T13:08:12.074Z,1.90
2022-11-10T13:10:53.778Z,2.30
2022-11-10T13:13:21.150Z,2.30
2022-11-10T13:15:53.724Z,2.13
2022-11-10T13:18:32.449Z,2.03
2022-11-10T13:20:59.908Z,2.20
2022-11-10T13:23:31.505Z,2.37
2022-11-10T13:26:09.232Z,2.00
2022-11-10T13:28:48.045Z,2.50
2022-11-10T13:31:38.968Z,2.50
2022-11-10T13:34:32.305Z,2.30
2022-11-10T13:36:59.504Z,2.10
2022-11-10T13:39:27.510Z,2.30
2022-11-10T13:42:00.703Z,2.70
2022-11-10T13:44:47.576Z,2.97
2022-11-10T13:47:17.252Z,2.20
2022-11-10T13:50:28.183Z,2.17
2022-11-10T13:53:00.962Z,2.27
2022-11-10T13:55:59.982Z,2.30
2022-11-10T13:58:33.060Z,2.10
2022-11-10T14:01:17.881Z,2.57
2022-11-10T14:03:51.398Z,2.60
2022-11-10T14:06:40.430Z,2.90
2022-11-10T14:09:34.285Z,2.83
2022-11-10T14:12:15.165Z,2.10
2022-11-10T14:14:47.482Z,2.10
2022-11-10T14:17:28.350Z,2.60
2022-11-10T14:19:55.182Z,2.40
2022-11-10T14:22:33.200Z,2.20
2022-11-10T14:25:20.684Z,2.70
2022-11-10T14:27:47.818Z,2.47
2022-11-10T14:30:24.747Z,2.37
2022-11-10T14:33:09.085Z,2.23
2022-11-10T14:35:52.029Z,2.30
2022-11-10T14:38:21.125Z,2.50
2022-11-10T14:40:49.065Z,2.70
2022-11-10T14:43:44.914Z,2.77
2022-11-10T14:46:14.959Z,2.00
2022-11-10T14:48:42.059Z,2.30
2022-11-10T14:51:19.067Z,2.73
2022-11-10T14:53:57.002Z,2.57
2022-11-10T14:56:31.071Z,3.13
2022-11-10T14:59:01.275Z,2.13
2022-11-10T15:01:34.647Z,2.80
2022-11-10T15:04:02.832Z,2.20
2022-11-10T15:06:30.711Z,2.23
2022-11-10T15:08:59.668Z,2.40
2022-11-10T15:11:37.996Z,3.33
2022-11-10T15:14:05.121Z,2.57
2022-11-10T15:16:32.772Z,3.07
2022-11-10T15:19:24.379Z,2.57
2022-11-10T15:21:51.505Z,2.43
2022-11-10T15:24:19.046Z,2.83
2022-11-10T15:26:45.811Z,2.63
2022-11-10T15:29:21.602Z,2.20
2022-11-10T15:31:48.788Z,2.70
2022-11-10T15:34:49.299Z,2.40
2022-11-10T15:37:29.979Z,2.73
2022-11-10T15:40:28.397Z,2.30
2022-11-10T15:43:13.692Z,2.30
2022-11-10T15:45:42.159Z,2.33
2022-11-10T15:48:16.873Z,2.73
2022-11-10T15:50:49.247Z,2.70
2022-11-10T15:53:25.777Z,2.60
2022-11-10T15:55:52.839Z,3.00
2022-11-10T15:58:21.884Z,2.53
2022-11-10T16:00:49.637Z,3.00
2022-11-10T16:03:22.477Z,3.57
2022-11-10T16:05:49.791Z,2.97
2022-11-10T16:08:18.897Z,2.90
2022-11-10T16:10:48.110Z,2.97
2022-11-10T16:13:18.972Z,2.77
2022-11-10T16:15:46.133Z,2.90
2022-11-10T16:18:19.855Z,3.00
2022-11-10T16:20:47.663Z,3.03
2022-11-10T16:23:14.787Z,2.83
2022-11-10T16:25:42.514Z,2.60
2022-11-10T16:28:20.724Z,3.50
2022-11-10T16:30:48.113Z,3.50
2022-11-10T16:33:16.483Z,2.90
2022-11-10T16:35:43.689Z,3.27
2022-11-10T16:38:19.605Z,3.30
2022-11-10T16:40:55.087Z,2.97
2022-11-10T16:43:22.501Z,3.20
2022-11-10T16:45:51.090Z,3.33
2022-11-10T16:48:30.473Z,3.17
2022-11-10T16:50:59.237Z,3.33
2022-11-10T16:53:28.918Z,3.33
2022-11-10T16:55:56.001Z,2.93
2022-11-10T16:58:25.974Z,3.17
2022-11-10T17:00:55.357Z,2.80
2022-11-10T17:03:31.333Z,3.27
2022-11-10T17:05:58.699Z,4.00
2022-11-10T17:08:28.448Z,3.53
2022-11-10T17:10:58.301Z,3.70
2022-11-10T17:13:25.679Z,2.90
2022-11-10T17:15:57.672Z,3.40
2022-11-10T17:18:24.983Z,3.70
2022-11-10T17:20:53.075Z,3.30
2022-11-10T17:23:24.355Z,3.13
2022-11-10T17:25:51.919Z,3.27
2022-11-10T17:28:19.015Z,3.13
2022-11-10T17:30:46.340Z,3.07
2022-11-10T17:33:13.173Z,3.07
2022-11-10T17:35:44.544Z,3.10
2022-11-10T17:38:14.108Z,3.33
2022-11-10T17:40:42.801Z,3.87
2022-11-10T17:43:12.160Z,3.10
2022-11-10T17:45:39.617Z,3.17
2022-11-10T17:48:06.968Z,3.07
2022-11-10T17:50:35.908Z,3.00
2022-11-10T17:53:08.888Z,3.00
2022-11-10T17:55:36.864Z,3.10
2022-11-10T17:58:03.618Z,3.13
2022-11-10T18:00:30.690Z,3.30
2022-11-10T18:02:57.786Z,3.73
2022-11-10T18:05:24.528Z,3.53
2022-11-10T18:07:52.947Z,3.10
2022-11-10T18:10:19.643Z,3.20
2022-11-10T18:12:46.726Z,3.33
2022-11-10T18:15:15.728Z,3.33
2022-11-10T18:17:42.774Z,3.80
2022-11-10T18:20:11.485Z,3.40
2022-11-10T18:22:38.582Z,3.30
2022-11-10T18:25:06.279Z,2.93
2022-11-10T18:27:33.327Z,3.40
2022-11-10T18:30:00.374Z,3.40
2022-11-10T18:32:27.373Z,3.17
2022-11-10T18:34:54.471Z,3.33
2022-11-10T18:37:21.251Z,3.50
2022-11-10T18:39:48.372Z,3.00
2022-11-10T18:42:15.421Z,3.17
2022-11-10T18:44:42.544Z,3.33
2022-11-10T18:47:12.018Z,3.17
2022-11-10T18:49:39.182Z,3.70
2022-11-10T18:52:05.835Z,3.23
2022-11-10T18:54:32.540Z,3.30
2022-11-10T18:56:59.564Z,3.37
2022-11-10T18:59:26.619Z,3.73
2022-11-10T19:01:53.859Z,3.77
2022-11-10T19:04:21.099Z,3.83
2022-11-10T19:06:48.392Z,3.63
2022-11-10T19:09:15.203Z,4.13
2022-11-10T19:11:43.723Z,3.90
2022-11-10T19:14:10.398Z,4.53
2022-11-10T19:16:37.465Z,4.57
2022-11-10T19:19:04.586Z,4.30
2022-11-10T19:21:31.298Z,4.00
2022-11-10T19:24:01.533Z,4.60
2022-11-10T19:26:28.705Z,3.93
2022-11-10T19:28:56.027Z,4.47
2022-11-10T19:31:24.249Z,5.10
2022-11-10T19:33:54.064Z,4.43
2022-11-10T19:36:23.289Z,4.60
2022-11-10T19:38:50.444Z,4.60
2022-11-10T19:41:21.506Z,4.87
2022-11-10T19:43:48.583Z,4.60
2022-11-10T19:46:17.973Z,4.60
2022-11-10T19:48:45.037Z,4.47
2022-11-10T19:51:14.483Z,4.23
2022-11-10T19:53:42.191Z,4.60
2022-11-10T19:56:14.593Z,4.90
2022-11-10T19:58:42.397Z,4.97
2022-11-10T20:01:11.005Z,4.60
2022-11-10T20:03:39.412Z,4.70
2022-11-10T20:06:09.756Z,4.77
2022-11-10T20:08:37.491Z,5.30
2022-11-10T20:11:04.620Z,5.17
2022-11-10T20:13:31.722Z,4.83
2022-11-10T20:15:58.923Z,5.03
2022-11-10T20:18:25.648Z,4.90
2022-11-10T20:20:52.756Z,6.07
2022-11-10T20:23:19.725Z,5.77
2022-11-10T20:25:46.957Z,5.33
2022-11-10T20:28:14.304Z,4.97
2022-11-10T20:30:44.344Z,4.80
2022-11-10T20:33:11.548Z,5.20
2022-11-10T20:35:43.373Z,5.27
2022-11-10T20:38:11.141Z,5.83
2022-11-10T20:40:44.392Z,4.87
2022-11-10T20:43:12.479Z,5.00
2022-11-10T20:45:39.577Z,5.43
2022-11-10T20:48:06.334Z,5.67
2022-11-10T20:50:33.398Z,5.20
2022-11-10T20:53:00.084Z,5.23
2022-11-10T20:55:52.197Z,5.20
2022-11-10T20:58:14.212Z,5.00
2022-11-10T21:00:44.038Z,5.13
2022-11-10T21:03:10.703Z,5.27
2022-11-10T21:05:37.353Z,4.90
2022-11-10T21:08:04.171Z,5.03
2022-11-10T21:10:31.230Z,5.20
2022-11-10T21:12:58.284Z,5.37
2022-11-10T21:15:25.054Z,5.23
2022-11-10T21:17:51.689Z,5.20
2022-11-10T21:20:18.399Z,4.90
2022-11-10T21:22:45.485Z,5.40
2022-11-10T21:25:13.509Z,5.33
2022-11-10T21:27:40.150Z,5.70
2022-11-10T21:30:11.455Z,6.07
2022-11-10T21:32:40.778Z,6.20
2022-11-10T21:35:07.972Z,5.87
2022-11-10T21:37:34.625Z,6.10
2022-11-10T21:40:01.770Z,6.70
2022-11-10T21:42:34.245Z,6.43
2022-11-10T21:45:02.022Z,6.53
2022-11-10T21:47:28.818Z,6.43
2022-11-10T21:49:55.461Z,6.43
2022-11-10T21:52:22.557Z,7.23
2022-11-10T21:54:49.648Z,6.87
2022-11-10T21:57:16.677Z,6.40
2022-11-10T21:59:43.317Z,6.20
2022-11-10T22:02:10.617Z,6.67
2022-11-10T22:04:37.255Z,6.57
2022-11-10T22:07:22.904Z,6.67
2022-11-10T22:10:12.148Z,6.40
2022-11-10T22:12:58.171Z,6.77
2022-11-10T22:15:44.333Z,6.67
2022-11-10T22:18:35.299Z,6.17
2022-11-10T22:21:06.105Z,6.97
2022-11-10T22:23:51.789Z,6.97
2022-11-10T22:26:18.914Z,6.57
2022-11-10T22:28:46.518Z,7.20
2022-11-10T22:31:13.261Z,7.33
2022-11-10T22:33:41.715Z,6.60
2022-11-10T22:36:12.409Z,7.67
2022-11-10T22:38:41.172Z,7.07
2022-11-10T22:41:32.114Z,7.60
2022-11-10T22:44:04.932Z,7.90
2022-11-10T22:46:39.942Z,7.37
2022-11-10T22:49:08.736Z,7.43
2022-11-10T22:51:37.443Z,7.47
2022-11-10T22:54:05.546Z,7.53
2022-11-10T22:56:33.453Z,7.43
2022-11-10T22:59:00.564Z,7.40
2022-11-10T23:01:28.146Z,7.40
2022-11-10T23:03:57.668Z,8.10
2022-11-10T23:06:24.859Z,7.27
2022-11-10T23:08:51.654Z,7.33
2022-11-10T23:11:21.042Z,7.00
2022-11-10T23:13:49.741Z,7.27
2022-11-10T23:16:19.226Z,7.00
2022-11-10T23:18:47.227Z,7.47
2022-11-10T23:21:15.919Z,7.50
2022-11-10T23:23:43.240Z,8.10
2022-11-10T23:26:21.580Z,7.10
2022-11-10T23:28:48.553Z,7.67
2022-11-10T23:31:20.827Z,7.70
2022-11-10T23:33:49.652Z,8.33
2022-11-10T23:36:18.491Z,7.97
2022-11-10T23:38:45.731Z,8.20
2022-11-10T23:41:15.226Z,8.43
2022-11-10T23:43:43.283Z,8.30
2022-11-10T23:46:11.157Z,7.57
2022-11-10T23:48:38.509Z,9.60
2022-11-10T23:51:07.101Z,7.97
2022-11-10T23:53:33.788Z,7.63
2022-11-10T23:56:02.954Z,7.67
2022-11-10T23:58:30.197Z,7.73
